sensor_id;sensor_type;location;lat;lon;timestamp;P1;durP1;ratioP1;P2;durP2;ratioP2
68196;SDS011;55019;49.382;11.358;2024-02-26T00:01:38;5.45;;;2.70;;
68196;SDS011;55019;49.382;11.358;2024-02-26T00:04:04;8.18;;;3.17;;
68196;SDS011;55019;49.382;11.358;2024-02-26T00:06:30;7.10;;;2.95;;
68196;SDS011;55019;49.382;11.358;2024-02-26T00:08:56;6.22;;;2.65;;
68196;SDS011;55019;49.382;11.358;2024-02-26T00:11:22;6.03;;;2.80;;
68196;SDS011;55019;49.382;11.358;2024-02-26T00:13:48;5.82;;;2.80;;
68196;SDS011;55019;49.382;11.358;2024-02-26T00:16:14;7.60;;;3.30;;
68196;SDS011;55019;49.382;11.358;2024-02-26T00:18:39;4.80;;;2.25;;
68196;SDS011;55019;49.382;11.358;2024-02-26T00:21:05;7.60;;;3.10;;
68196;SDS011;55019;49.382;11.358;2024-02-26T00:23:31;7.47;;;2.85;;
68196;SDS011;55019;49.382;11.358;2024-02-26T00:25:57;6.80;;;2.95;;
68196;SDS011;55019;49.382;11.358;2024-02-26T00:28:23;7.60;;;2.90;;
68196;SDS011;55019;49.382;11.358;2024-02-26T00:30:50;7.78;;;3.08;;
68196;SDS011;55019;49.382;11.358;2024-02-26T00:33:21;6.05;;;2.78;;
68196;SDS011;55019;49.382;11.358;2024-02-26T00:35:47;7.95;;;3.17;;
68196;SDS011;55019;49.382;11.358;2024-02-26T00:38:13;7.45;;;2.97;;
68196;SDS011;55019;49.382;11.358;2024-02-26T00:40:39;8.95;;;3.30;;
68196;SDS011;55019;49.382;11.358;2024-02-26T00:43:06;7.47;;;3.15;;
68196;SDS011;55019;49.382;11.358;2024-02-26T00:45:34;8.00;;;3.42;;
68196;SDS011;55019;49.382;11.358;2024-02-26T00:48:01;7.63;;;3.30;;
68196;SDS011;55019;49.382;11.358;2024-02-26T00:50:30;8.77;;;3.45;;
68196;SDS011;55019;49.382;11.358;2024-02-26T00:52:59;7.32;;;2.50;;
68196;SDS011;55019;49.382;11.358;2024-02-26T00:55:25;8.73;;;3.85;;
68196;SDS011;55019;49.382;11.358;2024-02-26T00:57:51;6.25;;;2.45;;
68196;SDS011;55019;49.382;11.358;2024-02-26T01:00:17;8.77;;;3.58;;
68196;SDS011;55019;49.382;11.358;2024-02-26T01:02:43;6.72;;;3.30;;
68196;SDS011;55019;49.382;11.358;2024-02-26T01:05:12;8.02;;;3.20;;
68196;SDS011;55019;49.382;11.358;2024-02-26T01:07:38;7.00;;;2.70;;
68196;SDS011;55019;49.382;11.358;2024-02-26T01:10:05;6.25;;;3.10;;
68196;SDS011;55019;49.382;11.358;2024-02-26T01:12:32;6.13;;;3.08;;
68196;SDS011;55019;49.382;11.358;2024-02-26T01:14:59;5.35;;;2.65;;
68196;SDS011;55019;49.382;11.358;2024-02-26T01:17:24;6.22;;;2.83;;
68196;SDS011;55019;49.382;11.358;2024-02-26T01:19:50;6.90;;;3.08;;
68196;SDS011;55019;49.382;11.358;2024-02-26T01:22:16;6.05;;;3.10;;
68196;SDS011;55019;49.382;11.358;2024-02-26T01:24:42;7.30;;;2.85;;
68196;SDS011;55019;49.382;11.358;2024-02-26T01:27:07;9.00;;;3.10;;
68196;SDS011;55019;49.382;11.358;2024-02-26T01:29:34;5.30;;;2.67;;
68196;SDS011;55019;49.382;11.358;2024-02-26T01:32:00;6.32;;;2.60;;
68196;SDS011;55019;49.382;11.358;2024-02-26T01:34:25;5.78;;;3.20;;
68196;SDS011;55019;49.382;11.358;2024-02-26T01:36:51;6.72;;;3.47;;
68196;SDS011;55019;49.382;11.358;2024-02-26T01:39:17;6.43;;;2.72;;
68196;SDS011;55019;49.382;11.358;2024-02-26T01:41:42;9.07;;;3.13;;
68196;SDS011;55019;49.382;11.358;2024-02-26T01:44:08;7.57;;;2.92;;
68196;SDS011;55019;49.382;11.358;2024-02-26T01:46:39;9.15;;;3.88;;
68196;SDS011;55019;49.382;11.358;2024-02-26T01:49:05;6.57;;;3.28;;
68196;SDS011;55019;49.382;11.358;2024-02-26T01:51:33;7.75;;;2.85;;
68196;SDS011;55019;49.382;11.358;2024-02-26T01:54:01;7.07;;;3.55;;
68196;SDS011;55019;49.382;11.358;2024-02-26T01:56:29;7.53;;;3.45;;
68196;SDS011;55019;49.382;11.358;2024-02-26T01:59:00;9.40;;;3.75;;
68196;SDS011;55019;49.382;11.358;2024-02-26T02:01:27;6.70;;;2.80;;
68196;SDS011;55019;49.382;11.358;2024-02-26T02:03:58;6.78;;;3.00;;
68196;SDS011;55019;49.382;11.358;2024-02-26T02:06:25;8.02;;;2.90;;
68196;SDS011;55019;49.382;11.358;2024-02-26T02:08:52;5.68;;;2.50;;
68196;SDS011;55019;49.382;11.358;2024-02-26T02:11:19;7.05;;;3.78;;
68196;SDS011;55019;49.382;11.358;2024-02-26T02:13:45;6.38;;;3.13;;
68196;SDS011;55019;49.382;11.358;2024-02-26T02:16:10;6.93;;;2.90;;
68196;SDS011;55019;49.382;11.358;2024-02-26T02:18:36;4.97;;;2.58;;
68196;SDS011;55019;49.382;11.358;2024-02-26T02:21:02;5.78;;;2.50;;
68196;SDS011;55019;49.382;11.358;2024-02-26T02:23:28;7.22;;;2.75;;
68196;SDS011;55019;49.382;11.358;2024-02-26T02:25:54;8.40;;;2.92;;
68196;SDS011;55019;49.382;11.358;2024-02-26T02:28:21;7.75;;;3.08;;
68196;SDS011;55019;49.382;11.358;2024-02-26T02:30:47;6.90;;;3.40;;
68196;SDS011;55019;49.382;11.358;2024-02-26T02:33:14;7.05;;;2.60;;
68196;SDS011;55019;49.382;11.358;2024-02-26T02:35:41;6.32;;;2.80;;
68196;SDS011;55019;49.382;11.358;2024-02-26T02:38:07;6.47;;;2.95;;
68196;SDS011;55019;49.382;11.358;2024-02-26T02:40:32;4.78;;;2.67;;
68196;SDS011;55019;49.382;11.358;2024-02-26T02:42:58;4.95;;;2.38;;
68196;SDS011;55019;49.382;11.358;2024-02-26T02:45:25;4.03;;;2.35;;
68196;SDS011;55019;49.382;11.358;2024-02-26T02:47:51;6.32;;;2.95;;
68196;SDS011;55019;49.382;11.358;2024-02-26T02:50:16;6.07;;;2.50;;
68196;SDS011;55019;49.382;11.358;2024-02-26T02:52:42;4.63;;;2.42;;
68196;SDS011;55019;49.382;11.358;2024-02-26T02:55:08;5.78;;;2.78;;
68196;SDS011;55019;49.382;11.358;2024-02-26T02:57:34;7.55;;;2.95;;
68196;SDS011;55019;49.382;11.358;2024-02-26T02:59:59;7.20;;;2.60;;
68196;SDS011;55019;49.382;11.358;2024-02-26T03:02:25;5.78;;;2.78;;
68196;SDS011;55019;49.382;11.358;2024-02-26T03:04:51;4.95;;;1.98;;
68196;SDS011;55019;49.382;11.358;2024-02-26T03:07:19;4.00;;;2.15;;
68196;SDS011;55019;49.382;11.358;2024-02-26T03:09:44;5.22;;;2.22;;
68196;SDS011;55019;49.382;11.358;2024-02-26T03:12:10;5.45;;;1.95;;
68196;SDS011;55019;49.382;11.358;2024-02-26T03:14:36;5.80;;;2.10;;
68196;SDS011;55019;49.382;11.358;2024-02-26T03:17:01;6.30;;;2.10;;
68196;SDS011;55019;49.382;11.358;2024-02-26T03:19:27;5.20;;;2.00;;
68196;SDS011;55019;49.382;11.358;2024-02-26T03:21:53;4.53;;;1.75;;
68196;SDS011;55019;49.382;11.358;2024-02-26T03:24:18;3.83;;;1.73;;
68196;SDS011;55019;49.382;11.358;2024-02-26T03:26:44;3.67;;;1.88;;
68196;SDS011;55019;49.382;11.358;2024-02-26T03:29:10;4.25;;;1.58;;
68196;SDS011;55019;49.382;11.358;2024-02-26T03:31:36;4.63;;;1.90;;
68196;SDS011;55019;49.382;11.358;2024-02-26T03:34:01;4.82;;;1.90;;
68196;SDS011;55019;49.382;11.358;2024-02-26T03:36:27;3.15;;;1.65;;
68196;SDS011;55019;49.382;11.358;2024-02-26T03:38:53;3.08;;;1.75;;
68196;SDS011;55019;49.382;11.358;2024-02-26T03:41:18;3.60;;;1.67;;
68196;SDS011;55019;49.382;11.358;2024-02-26T03:43:44;4.47;;;1.45;;
68196;SDS011;55019;49.382;11.358;2024-02-26T03:46:10;3.83;;;1.77;;
68196;SDS011;55019;49.382;11.358;2024-02-26T03:48:39;3.53;;;1.80;;
68196;SDS011;55019;49.382;11.358;2024-02-26T03:51:08;3.92;;;1.60;;
68196;SDS011;55019;49.382;11.358;2024-02-26T03:53:35;3.13;;;1.55;;
68196;SDS011;55019;49.382;11.358;2024-02-26T03:56:05;2.60;;;1.65;;
68196;SDS011;55019;49.382;11.358;2024-02-26T03:58:32;4.40;;;1.80;;
68196;SDS011;55019;49.382;11.358;2024-02-26T04:00:58;4.10;;;1.90;;
68196;SDS011;55019;49.382;11.358;2024-02-26T04:03:25;3.25;;;1.60;;
68196;SDS011;55019;49.382;11.358;2024-02-26T04:05:51;3.70;;;1.40;;
68196;SDS011;55019;49.382;11.358;2024-02-26T04:08:16;3.80;;;1.92;;
68196;SDS011;55019;49.382;11.358;2024-02-26T04:10:42;2.22;;;1.42;;
68196;SDS011;55019;49.382;11.358;2024-02-26T04:13:08;4.50;;;1.80;;
68196;SDS011;55019;49.382;11.358;2024-02-26T04:15:34;2.65;;;1.27;;
68196;SDS011;55019;49.382;11.358;2024-02-26T04:17:59;5.20;;;1.55;;
68196;SDS011;55019;49.382;11.358;2024-02-26T04:20:25;5.05;;;2.08;;
68196;SDS011;55019;49.382;11.358;2024-02-26T04:22:58;4.18;;;1.52;;
68196;SDS011;55019;49.382;11.358;2024-02-26T04:25:24;1.30;;;1.00;;
68196;SDS011;55019;49.382;11.358;2024-02-26T04:27:50;2.45;;;1.35;;
68196;SDS011;55019;49.382;11.358;2024-02-26T04:30:15;4.07;;;1.73;;
68196;SDS011;55019;49.382;11.358;2024-02-26T04:32:45;3.03;;;1.50;;
68196;SDS011;55019;49.382;11.358;2024-02-26T04:35:11;3.13;;;1.33;;
68196;SDS011;55019;49.382;11.358;2024-02-26T04:38:03;3.20;;;1.42;;
68196;SDS011;55019;49.382;11.358;2024-02-26T04:40:29;2.92;;;1.60;;
68196;SDS011;55019;49.382;11.358;2024-02-26T04:42:54;2.45;;;1.35;;
68196;SDS011;55019;49.382;11.358;2024-02-26T04:45:20;2.78;;;1.20;;
68196;SDS011;55019;49.382;11.358;2024-02-26T04:47:46;2.10;;;1.17;;
68196;SDS011;55019;49.382;11.358;2024-02-26T04:50:12;2.92;;;1.30;;
68196;SDS011;55019;49.382;11.358;2024-02-26T04:52:37;2.20;;;1.10;;
68196;SDS011;55019;49.382;11.358;2024-02-26T04:55:03;1.58;;;0.93;;
68196;SDS011;55019;49.382;11.358;2024-02-26T04:57:29;3.40;;;1.63;;
68196;SDS011;55019;49.382;11.358;2024-02-26T04:59:55;2.40;;;1.38;;
68196;SDS011;55019;49.382;11.358;2024-02-26T05:02:20;2.13;;;1.13;;
68196;SDS011;55019;49.382;11.358;2024-02-26T05:04:46;4.15;;;1.50;;
68196;SDS011;55019;49.382;11.358;2024-02-26T05:07:12;3.13;;;1.10;;
68196;SDS011;55019;49.382;11.358;2024-02-26T05:09:38;1.98;;;1.00;;
68196;SDS011;55019;49.382;11.358;2024-02-26T05:12:05;2.58;;;1.40;;
68196;SDS011;55019;49.382;11.358;2024-02-26T05:14:31;3.65;;;1.60;;
68196;SDS011;55019;49.382;11.358;2024-02-26T05:16:57;2.70;;;1.48;;
68196;SDS011;55019;49.382;11.358;2024-02-26T05:19:22;3.65;;;1.50;;
68196;SDS011;55019;49.382;11.358;2024-02-26T05:21:48;3.20;;;1.55;;
68196;SDS011;55019;49.382;11.358;2024-02-26T05:24:15;2.92;;;1.17;;
68196;SDS011;55019;49.382;11.358;2024-02-26T05:26:43;3.00;;;1.10;;
68196;SDS011;55019;49.382;11.358;2024-02-26T05:29:09;2.90;;;1.20;;
68196;SDS011;55019;49.382;11.358;2024-02-26T05:31:34;3.50;;;1.20;;
68196;SDS011;55019;49.382;11.358;2024-02-26T05:34:00;3.17;;;1.30;;
68196;SDS011;55019;49.382;11.358;2024-02-26T05:36:26;1.83;;;1.10;;
68196;SDS011;55019;49.382;11.358;2024-02-26T05:38:53;2.35;;;1.27;;
68196;SDS011;55019;49.382;11.358;2024-02-26T05:41:19;2.28;;;1.08;;
68196;SDS011;55019;49.382;11.358;2024-02-26T05:43:49;3.10;;;1.27;;
68196;SDS011;55019;49.382;11.358;2024-02-26T05:46:18;2.63;;;1.10;;
68196;SDS011;55019;49.382;11.358;2024-02-26T05:48:49;2.15;;;1.27;;
68196;SDS011;55019;49.382;11.358;2024-02-26T05:51:17;2.72;;;1.00;;
68196;SDS011;55019;49.382;11.358;2024-02-26T05:53:43;2.25;;;1.08;;
68196;SDS011;55019;49.382;11.358;2024-02-26T05:56:08;2.88;;;1.30;;
68196;SDS011;55019;49.382;11.358;2024-02-26T05:58:34;2.72;;;1.20;;
68196;SDS011;55019;49.382;11.358;2024-02-26T06:01:00;4.07;;;1.30;;
68196;SDS011;55019;49.382;11.358;2024-02-26T06:03:26;3.40;;;1.35;;
68196;SDS011;55019;49.382;11.358;2024-02-26T06:05:52;1.75;;;1.08;;
68196;SDS011;55019;49.382;11.358;2024-02-26T06:08:18;2.90;;;1.02;;
68196;SDS011;55019;49.382;11.358;2024-02-26T06:10:43;2.70;;;1.05;;
68196;SDS011;55019;49.382;11.358;2024-02-26T06:13:09;3.33;;;1.08;;
68196;SDS011;55019;49.382;11.358;2024-02-26T06:15:35;2.90;;;1.10;;
68196;SDS011;55019;49.382;11.358;2024-02-26T06:18:01;3.67;;;1.13;;
68196;SDS011;55019;49.382;11.358;2024-02-26T06:20:27;1.42;;;0.90;;
68196;SDS011;55019;49.382;11.358;2024-02-26T06:22:52;3.47;;;1.02;;
68196;SDS011;55019;49.382;11.358;2024-02-26T06:25:18;1.50;;;1.10;;
68196;SDS011;55019;49.382;11.358;2024-02-26T06:27:44;3.03;;;1.15;;
68196;SDS011;55019;49.382;11.358;2024-02-26T06:30:09;2.00;;;1.08;;
68196;SDS011;55019;49.382;11.358;2024-02-26T06:32:36;2.75;;;1.17;;
68196;SDS011;55019;49.382;11.358;2024-02-26T06:35:03;1.63;;;0.90;;
68196;SDS011;55019;49.382;11.358;2024-02-26T06:37:34;2.50;;;1.00;;
68196;SDS011;55019;49.382;11.358;2024-02-26T06:40:00;2.08;;;1.20;;
68196;SDS011;55019;49.382;11.358;2024-02-26T06:42:29;2.00;;;0.98;;
68196;SDS011;55019;49.382;11.358;2024-02-26T06:44:55;5.53;;;0.98;;
68196;SDS011;55019;49.382;11.358;2024-02-26T06:47:21;2.67;;;1.10;;
68196;SDS011;55019;49.382;11.358;2024-02-26T06:49:47;1.35;;;0.73;;
68196;SDS011;55019;49.382;11.358;2024-02-26T06:52:13;3.17;;;1.10;;
68196;SDS011;55019;49.382;11.358;2024-02-26T06:54:38;1.48;;;1.00;;
68196;SDS011;55019;49.382;11.358;2024-02-26T06:57:04;1.60;;;0.90;;
68196;SDS011;55019;49.382;11.358;2024-02-26T06:59:30;2.05;;;1.00;;
68196;SDS011;55019;49.382;11.358;2024-02-26T07:01:55;2.03;;;0.90;;
68196;SDS011;55019;49.382;11.358;2024-02-26T07:04:21;3.10;;;1.02;;
68196;SDS011;55019;49.382;11.358;2024-02-26T07:06:47;2.03;;;1.08;;
68196;SDS011;55019;49.382;11.358;2024-02-26T07:09:13;2.75;;;1.00;;
68196;SDS011;55019;49.382;11.358;2024-02-26T07:11:39;4.18;;;1.08;;
68196;SDS011;55019;49.382;11.358;2024-02-26T07:14:11;2.40;;;0.88;;
68196;SDS011;55019;49.382;11.358;2024-02-26T07:16:37;1.50;;;1.02;;
68196;SDS011;55019;49.382;11.358;2024-02-26T07:19:03;1.30;;;0.80;;
68196;SDS011;55019;49.382;11.358;2024-02-26T07:21:29;2.15;;;0.95;;
68196;SDS011;55019;49.382;11.358;2024-02-26T07:23:55;1.88;;;0.93;;
68196;SDS011;55019;49.382;11.358;2024-02-26T07:26:21;1.95;;;0.88;;
68196;SDS011;55019;49.382;11.358;2024-02-26T07:28:49;3.78;;;1.23;;
68196;SDS011;55019;49.382;11.358;2024-02-26T07:31:15;1.58;;;0.73;;
68196;SDS011;55019;49.382;11.358;2024-02-26T07:33:43;2.05;;;0.90;;
68196;SDS011;55019;49.382;11.358;2024-02-26T07:36:08;2.35;;;1.00;;
68196;SDS011;55019;49.382;11.358;2024-02-26T07:38:34;1.42;;;0.88;;
68196;SDS011;55019;49.382;11.358;2024-02-26T07:41:01;2.17;;;0.90;;
68196;SDS011;55019;49.382;11.358;2024-02-26T07:45:53;2.90;;;1.15;;
68196;SDS011;55019;49.382;11.358;2024-02-26T07:48:19;2.13;;;0.90;;
68196;SDS011;55019;49.382;11.358;2024-02-26T07:50:45;2.17;;;0.98;;
68196;SDS011;55019;49.382;11.358;2024-02-26T07:53:11;1.27;;;0.90;;
68196;SDS011;55019;49.382;11.358;2024-02-26T07:55:37;3.15;;;1.20;;
68196;SDS011;55019;49.382;11.358;2024-02-26T07:58:02;1.63;;;1.05;;
68196;SDS011;55019;49.382;11.358;2024-02-26T08:00:28;2.42;;;1.02;;
68196;SDS011;55019;49.382;11.358;2024-02-26T08:02:54;2.88;;;1.35;;
68196;SDS011;55019;49.382;11.358;2024-02-26T08:05:19;4.85;;;2.42;;
68196;SDS011;55019;49.382;11.358;2024-02-26T08:07:45;2.50;;;1.73;;
68196;SDS011;55019;49.382;11.358;2024-02-26T08:10:11;3.45;;;1.85;;
68196;SDS011;55019;49.382;11.358;2024-02-26T08:12:37;2.28;;;1.27;;
68196;SDS011;55019;49.382;11.358;2024-02-26T08:15:03;2.22;;;1.42;;
68196;SDS011;55019;49.382;11.358;2024-02-26T08:17:29;1.60;;;1.02;;
68196;SDS011;55019;49.382;11.358;2024-02-26T08:19:55;1.17;;;0.75;;
68196;SDS011;55019;49.382;11.358;2024-02-26T08:22:21;2.85;;;1.13;;
68196;SDS011;55019;49.382;11.358;2024-02-26T08:24:47;3.60;;;1.20;;
68196;SDS011;55019;49.382;11.358;2024-02-26T08:27:13;1.67;;;1.20;;
68196;SDS011;55019;49.382;11.358;2024-02-26T08:29:38;2.63;;;1.17;;
68196;SDS011;55019;49.382;11.358;2024-02-26T08:32:04;1.88;;;0.93;;
68196;SDS011;55019;49.382;11.358;2024-02-26T08:34:31;3.33;;;1.10;;
68196;SDS011;55019;49.382;11.358;2024-02-26T08:36:56;2.22;;;1.17;;
68196;SDS011;55019;49.382;11.358;2024-02-26T08:39:22;1.88;;;0.90;;
68196;SDS011;55019;49.382;11.358;2024-02-26T08:41:48;2.40;;;0.95;;
68196;SDS011;55019;49.382;11.358;2024-02-26T08:44:13;2.92;;;1.13;;
68196;SDS011;55019;49.382;11.358;2024-02-26T08:46:39;3.17;;;0.95;;
68196;SDS011;55019;49.382;11.358;2024-02-26T08:49:05;2.50;;;1.13;;
68196;SDS011;55019;49.382;11.358;2024-02-26T08:51:30;3.25;;;1.30;;
68196;SDS011;55019;49.382;11.358;2024-02-26T08:53:56;3.63;;;1.55;;
68196;SDS011;55019;49.382;11.358;2024-02-26T08:56:22;2.13;;;1.00;;
68196;SDS011;55019;49.382;11.358;2024-02-26T08:58:48;2.28;;;1.02;;
68196;SDS011;55019;49.382;11.358;2024-02-26T09:01:16;1.98;;;1.10;;
68196;SDS011;55019;49.382;11.358;2024-02-26T09:03:41;3.15;;;1.30;;
68196;SDS011;55019;49.382;11.358;2024-02-26T09:06:07;2.13;;;0.98;;
68196;SDS011;55019;49.382;11.358;2024-02-26T09:08:33;2.45;;;1.20;;
68196;SDS011;55019;49.382;11.358;2024-02-26T09:10:59;1.77;;;1.08;;
68196;SDS011;55019;49.382;11.358;2024-02-26T09:13:24;2.60;;;1.08;;
68196;SDS011;55019;49.382;11.358;2024-02-26T09:15:51;1.75;;;1.23;;
68196;SDS011;55019;49.382;11.358;2024-02-26T09:18:17;2.03;;;1.00;;
68196;SDS011;55019;49.382;11.358;2024-02-26T09:20:42;2.20;;;1.10;;
68196;SDS011;55019;49.382;11.358;2024-02-26T09:23:08;2.97;;;1.10;;
68196;SDS011;55019;49.382;11.358;2024-02-26T09:25:35;4.15;;;1.10;;
68196;SDS011;55019;49.382;11.358;2024-02-26T09:28:01;2.17;;;1.02;;
68196;SDS011;55019;49.382;11.358;2024-02-26T09:30:26;2.00;;;0.90;;
68196;SDS011;55019;49.382;11.358;2024-02-26T09:32:52;3.17;;;1.20;;
68196;SDS011;55019;49.382;11.358;2024-02-26T09:35:18;2.28;;;1.00;;
68196;SDS011;55019;49.382;11.358;2024-02-26T09:37:44;4.20;;;0.95;;
68196;SDS011;55019;49.382;11.358;2024-02-26T09:40:10;2.03;;;1.00;;
68196;SDS011;55019;49.382;11.358;2024-02-26T09:42:45;2.38;;;1.30;;
68196;SDS011;55019;49.382;11.358;2024-02-26T09:45:21;2.03;;;1.00;;
68196;SDS011;55019;49.382;11.358;2024-02-26T09:47:48;3.38;;;1.33;;
68196;SDS011;55019;49.382;11.358;2024-02-26T09:50:16;3.70;;;1.40;;
68196;SDS011;55019;49.382;11.358;2024-02-26T09:52:43;2.45;;;1.17;;
68196;SDS011;55019;49.382;11.358;2024-02-26T09:55:09;5.75;;;2.05;;
68196;SDS011;55019;49.382;11.358;2024-02-26T09:57:39;2.58;;;1.40;;
68196;SDS011;55019;49.382;11.358;2024-02-26T10:00:10;1.55;;;0.93;;
68196;SDS011;55019;49.382;11.358;2024-02-26T10:02:45;1.92;;;1.17;;
68196;SDS011;55019;49.382;11.358;2024-02-26T10:05:16;2.28;;;1.25;;
68196;SDS011;55019;49.382;11.358;2024-02-26T10:07:44;2.20;;;1.30;;
68196;SDS011;55019;49.382;11.358;2024-02-26T10:10:11;1.92;;;1.08;;
68196;SDS011;55019;49.382;11.358;2024-02-26T10:12:41;1.77;;;0.85;;
68196;SDS011;55019;49.382;11.358;2024-02-26T10:15:07;2.47;;;1.27;;
68196;SDS011;55019;49.382;11.358;2024-02-26T10:17:33;2.53;;;1.05;;
68196;SDS011;55019;49.382;11.358;2024-02-26T10:20:18;2.47;;;1.05;;
68196;SDS011;55019;49.382;11.358;2024-02-26T10:22:47;2.17;;;0.88;;
68196;SDS011;55019;49.382;11.358;2024-02-26T10:25:13;1.35;;;0.80;;
68196;SDS011;55019;49.382;11.358;2024-02-26T10:27:42;1.52;;;0.82;;
68196;SDS011;55019;49.382;11.358;2024-02-26T10:30:21;1.77;;;0.90;;
68196;SDS011;55019;49.382;11.358;2024-02-26T10:32:48;2.53;;;1.00;;
68196;SDS011;55019;49.382;11.358;2024-02-26T10:35:15;1.08;;;0.85;;
68196;SDS011;55019;49.382;11.358;2024-02-26T10:37:43;1.55;;;0.90;;
68196;SDS011;55019;49.382;11.358;2024-02-26T10:40:10;2.55;;;0.70;;
68196;SDS011;55019;49.382;11.358;2024-02-26T10:42:36;1.70;;;0.77;;
68196;SDS011;55019;49.382;11.358;2024-02-26T10:45:03;2.45;;;0.80;;
68196;SDS011;55019;49.382;11.358;2024-02-26T10:47:29;1.65;;;1.00;;
68196;SDS011;55019;49.382;11.358;2024-02-26T10:49:56;1.70;;;0.90;;
68196;SDS011;55019;49.382;11.358;2024-02-26T10:52:23;1.50;;;0.98;;
68196;SDS011;55019;49.382;11.358;2024-02-26T10:54:52;1.20;;;0.85;;
68196;SDS011;55019;49.382;11.358;2024-02-26T10:57:19;1.33;;;0.85;;
68196;SDS011;55019;49.382;11.358;2024-02-26T10:59:46;1.15;;;0.80;;
68196;SDS011;55019;49.382;11.358;2024-02-26T11:02:14;1.02;;;0.77;;
68196;SDS011;55019;49.382;11.358;2024-02-26T11:04:40;1.63;;;0.95;;
68196;SDS011;55019;49.382;11.358;2024-02-26T11:07:06;1.20;;;0.95;;
68196;SDS011;55019;49.382;11.358;2024-02-26T11:09:34;1.30;;;0.90;;
68196;SDS011;55019;49.382;11.358;2024-02-26T11:12:01;2.17;;;0.80;;
68196;SDS011;55019;49.382;11.358;2024-02-26T11:14:27;1.48;;;0.93;;
68196;SDS011;55019;49.382;11.358;2024-02-26T11:19:21;2.05;;;0.85;;
68196;SDS011;55019;49.382;11.358;2024-02-26T11:21:49;2.70;;;1.00;;
68196;SDS011;55019;49.382;11.358;2024-02-26T11:24:15;2.33;;;0.73;;
68196;SDS011;55019;49.382;11.358;2024-02-26T11:26:48;1.33;;;0.73;;
68196;SDS011;55019;49.382;11.358;2024-02-26T11:29:24;1.33;;;0.65;;
68196;SDS011;55019;49.382;11.358;2024-02-26T11:31:52;1.52;;;0.75;;
68196;SDS011;55019;49.382;11.358;2024-02-26T11:34:18;1.33;;;0.70;;
68196;SDS011;55019;49.382;11.358;2024-02-26T11:36:45;2.35;;;0.90;;
68196;SDS011;55019;49.382;11.358;2024-02-26T11:41:38;1.27;;;0.73;;
68196;SDS011;55019;49.382;11.358;2024-02-26T11:44:04;1.60;;;0.63;;
68196;SDS011;55019;49.382;11.358;2024-02-26T11:46:32;2.00;;;0.88;;
68196;SDS011;55019;49.382;11.358;2024-02-26T11:51:54;1.42;;;1.00;;
68196;SDS011;55019;49.382;11.358;2024-02-26T11:54:43;1.15;;;0.52;;
68196;SDS011;55019;49.382;11.358;2024-02-26T12:03:05;1.95;;;1.10;;
68196;SDS011;55019;49.382;11.358;2024-02-26T12:05:26;1.80;;;0.88;;
68196;SDS011;55019;49.382;11.358;2024-02-26T12:10:27;1.55;;;1.27;;
68196;SDS011;55019;49.382;11.358;2024-02-26T12:15:23;1.42;;;0.95;;
68196;SDS011;55019;49.382;11.358;2024-02-26T12:17:49;1.98;;;0.95;;
68196;SDS011;55019;49.382;11.358;2024-02-26T12:20:16;1.40;;;0.90;;
68196;SDS011;55019;49.382;11.358;2024-02-26T12:22:44;1.10;;;0.70;;
68196;SDS011;55019;49.382;11.358;2024-02-26T12:25:12;1.35;;;0.80;;
68196;SDS011;55019;49.382;11.358;2024-02-26T12:27:39;1.67;;;1.23;;
68196;SDS011;55019;49.382;11.358;2024-02-26T12:30:05;1.98;;;1.30;;
68196;SDS011;55019;49.382;11.358;2024-02-26T12:32:31;1.98;;;1.00;;
68196;SDS011;55019;49.382;11.358;2024-02-26T12:34:58;1.10;;;1.00;;
68196;SDS011;55019;49.382;11.358;2024-02-26T12:37:25;1.60;;;0.80;;
68196;SDS011;55019;49.382;11.358;2024-02-26T12:39:52;1.63;;;1.05;;
68196;SDS011;55019;49.382;11.358;2024-02-26T12:42:18;1.67;;;1.20;;
68196;SDS011;55019;49.382;11.358;2024-02-26T12:44:47;1.35;;;0.98;;
68196;SDS011;55019;49.382;11.358;2024-02-26T12:47:12;1.75;;;1.00;;
68196;SDS011;55019;49.382;11.358;2024-02-26T12:49:42;2.50;;;1.10;;
68196;SDS011;55019;49.382;11.358;2024-02-26T12:52:12;1.30;;;1.17;;
68196;SDS011;55019;49.382;11.358;2024-02-26T12:54:38;1.58;;;1.10;;
68196;SDS011;55019;49.382;11.358;2024-02-26T12:59:33;1.27;;;0.90;;
68196;SDS011;55019;49.382;11.358;2024-02-26T13:02:01;1.13;;;0.85;;
68196;SDS011;55019;49.382;11.358;2024-02-26T13:04:29;1.65;;;1.23;;
68196;SDS011;55019;49.382;11.358;2024-02-26T13:06:56;1.00;;;0.82;;
68196;SDS011;55019;49.382;11.358;2024-02-26T13:09:27;1.60;;;0.77;;
68196;SDS011;55019;49.382;11.358;2024-02-26T13:11:56;1.42;;;0.88;;
68196;SDS011;55019;49.382;11.358;2024-02-26T13:14:22;1.00;;;0.90;;
68196;SDS011;55019;49.382;11.358;2024-02-26T13:16:57;1.38;;;0.98;;
68196;SDS011;55019;49.382;11.358;2024-02-26T13:19:23;1.10;;;0.98;;
68196;SDS011;55019;49.382;11.358;2024-02-26T13:21:49;1.45;;;0.90;;
68196;SDS011;55019;49.382;11.358;2024-02-26T13:24:15;2.30;;;1.10;;
68196;SDS011;55019;49.382;11.358;2024-02-26T13:26:41;1.88;;;1.20;;
68196;SDS011;55019;49.382;11.358;2024-02-26T13:29:07;2.17;;;0.98;;
68196;SDS011;55019;49.382;11.358;2024-02-26T13:31:42;1.48;;;1.02;;
68196;SDS011;55019;49.382;11.358;2024-02-26T13:34:08;1.50;;;0.90;;
68196;SDS011;55019;49.382;11.358;2024-02-26T13:36:33;1.02;;;0.75;;
68196;SDS011;55019;49.382;11.358;2024-02-26T13:38:59;2.67;;;1.10;;
68196;SDS011;55019;49.382;11.358;2024-02-26T13:41:26;2.28;;;1.10;;
68196;SDS011;55019;49.382;11.358;2024-02-26T13:43:52;1.80;;;1.30;;
68196;SDS011;55019;49.382;11.358;2024-02-26T13:46:18;4.22;;;2.55;;
68196;SDS011;55019;49.382;11.358;2024-02-26T13:48:44;5.20;;;3.35;;
68196;SDS011;55019;49.382;11.358;2024-02-26T13:51:09;2.05;;;1.35;;
68196;SDS011;55019;49.382;11.358;2024-02-26T13:53:35;1.05;;;0.70;;
68196;SDS011;55019;49.382;11.358;2024-02-26T13:56:01;1.13;;;0.93;;
68196;SDS011;55019;49.382;11.358;2024-02-26T13:58:29;1.75;;;1.20;;
68196;SDS011;55019;49.382;11.358;2024-02-26T14:00:55;2.08;;;0.98;;
68196;SDS011;55019;49.382;11.358;2024-02-26T14:03:21;1.55;;;1.20;;
68196;SDS011;55019;49.382;11.358;2024-02-26T14:05:47;3.00;;;2.10;;
68196;SDS011;55019;49.382;11.358;2024-02-26T14:08:13;2.15;;;1.02;;
68196;SDS011;55019;49.382;11.358;2024-02-26T14:10:39;2.10;;;0.95;;
68196;SDS011;55019;49.382;11.358;2024-02-26T14:13:05;2.05;;;0.93;;
68196;SDS011;55019;49.382;11.358;2024-02-26T14:15:31;3.50;;;1.40;;
68196;SDS011;55019;49.382;11.358;2024-02-26T14:17:58;4.38;;;1.63;;
68196;SDS011;55019;49.382;11.358;2024-02-26T14:20:24;2.33;;;1.17;;
68196;SDS011;55019;49.382;11.358;2024-02-26T14:22:50;1.15;;;0.98;;
68196;SDS011;55019;49.382;11.358;2024-02-26T14:25:19;1.92;;;1.10;;
68196;SDS011;55019;49.382;11.358;2024-02-26T14:27:45;3.00;;;1.75;;
68196;SDS011;55019;49.382;11.358;2024-02-26T14:30:12;1.25;;;0.88;;
68196;SDS011;55019;49.382;11.358;2024-02-26T14:32:38;1.98;;;1.20;;
68196;SDS011;55019;49.382;11.358;2024-02-26T14:35:07;1.58;;;0.98;;
68196;SDS011;55019;49.382;11.358;2024-02-26T14:37:34;2.03;;;1.00;;
68196;SDS011;55019;49.382;11.358;2024-02-26T14:40:01;2.78;;;1.50;;
68196;SDS011;55019;49.382;11.358;2024-02-26T14:42:30;2.92;;;1.20;;
68196;SDS011;55019;49.382;11.358;2024-02-26T14:44:56;1.50;;;1.13;;
68196;SDS011;55019;49.382;11.358;2024-02-26T14:47:22;2.00;;;1.27;;
68196;SDS011;55019;49.382;11.358;2024-02-26T14:49:48;1.55;;;0.90;;
68196;SDS011;55019;49.382;11.358;2024-02-26T14:52:14;1.50;;;1.08;;
68196;SDS011;55019;49.382;11.358;2024-02-26T14:54:40;2.28;;;1.15;;